Time;durP1;ratioP1;P1;durP2;ratioP2;P2;SDS_P1;SDS_P2;PMS_P1;PMS_P2;Temp;Humidity;BMP_temperature;BMP_pressure;BME280_temperature;BME280_humidity;BME280_pressure;Samples;Min_cycle;Max_cycle;Signal;HPM_P1;HPM_P2
2023/01/23 00:00:44;;;;;;;152.23;65.50;;;2.20;99.90;;;;;;5116868;28;20059;-58
2023/01/23 00:03:10;;;;;;;;;;;2.30;99.90;;;;;;5117402;27;20046;-58
2023/01/23 00:05:36;;;;;;;134.30;61.67;;;2.20;99.90;;;;;;5117031;28;19911;-58
2023/01/23 00:08:02;;;;;;;133.02;62.25;;;2.40;99.90;;;;;;5116943;28;20226;-59
2023/01/23 00:10:28;;;;;;;121.32;57.03;;;2.50;99.90;;;;;;5116708;28;20040;-58
2023/01/23 00:12:56;;;;;;;120.13;55.25;;;2.60;99.90;;;;;;5116882;28;20039;-58
2023/01/23 00:15:22;;;;;;;110.22;55.47;;;2.60;99.90;;;;;;5116814;28;20028;-58
2023/01/23 00:17:48;;;;;;;119.57;56.50;;;2.60;99.90;;;;;;5116689;28;20032;-58
2023/01/23 00:20:14;;;;;;;110.05;51.35;;;2.60;99.90;;;;;;5116640;28;20388;-58
2023/01/23 00:22:40;;;;;;;141.18;63.85;;;2.40;99.90;;;;;;5116667;28;20478;-58
2023/01/23 00:25:06;;;;;;;100.38;45.33;;;2.30;99.90;;;;;;5116583;28;20136;-58
2023/01/23 00:27:32;;;;;;;176.82;74.95;;;2.40;99.90;;;;;;5116486;28;20480;-58
2023/01/23 00:29:58;;;;;;;199.68;82.97;;;2.40;99.90;;;;;;5115917;28;20284;-58
2023/01/23 00:32:26;;;;;;;169.15;70.82;;;2.30;99.90;;;;;;5115834;28;20063;-58
2023/01/23 00:34:52;;;;;;;163.98;69.78;;;2.20;99.90;;;;;;5116289;28;20494;-58
2023/01/23 00:37:18;;;;;;;124.50;55.35;;;2.30;99.90;;;;;;5116342;28;20102;-58
2023/01/23 00:39:44;;;;;;;116.38;51.05;;;2.50;99.90;;;;;;5116419;28;20024;-58
2023/01/23 00:42:11;;;;;;;120.32;53.70;;;2.50;99.90;;;;;;5116263;28;20102;-59
2023/01/23 00:44:37;;;;;;;141.45;58.13;;;2.50;99.90;;;;;;5116084;28;20031;-58
2023/01/23 00:47:03;;;;;;;137.27;61.67;;;2.40;99.90;;;;;;5116170;28;20031;-58
2023/01/23 00:49:29;;;;;;;156.75;63.92;;;2.30;99.90;;;;;;5116152;28;20035;-58
2023/01/23 00:51:55;;;;;;;156.25;66.20;;;2.30;99.90;;;;;;5115706;27;20028;-58
2023/01/23 00:54:23;;;;;;;247.23;100.80;;;2.30;99.90;;;;;;5114653;28;20078;-58
2023/01/23 00:56:49;;;;;;;242.20;97.45;;;2.30;99.90;;;;;;5115893;28;20027;-58
2023/01/23 00:59:15;;;;;;;294.40;112.57;;;2.20;99.90;;;;;;5114543;28;20115;-58
2023/01/23 01:01:41;;;;;;;204.70;79.32;;;2.20;99.90;;;;;;5114139;28;20060;-58
2023/01/23 01:04:07;;;;;;;152.73;60.38;;;2.20;99.90;;;;;;5115682;28;20038;-58
2023/01/23 01:06:35;;;;;;;104.15;46.28;;;2.30;99.90;;;;;;5114520;28;20059;-58
2023/01/23 01:09:02;;;;;;;95.28;42.58;;;2.40;99.90;;;;;;5114398;28;20046;-58
2023/01/23 01:11:28;;;;;;;86.07;41.38;;;2.50;99.90;;;;;;5115669;28;20090;-58
2023/01/23 01:13:58;;;;;;;76.60;38.17;;;2.50;99.90;;;;;;5115446;28;20058;-58
2023/01/23 01:16:24;;;;;;;79.47;41.05;;;2.50;99.90;;;;;;5114254;28;20047;-58
2023/01/23 01:18:50;;;;;;;88.05;44.58;;;2.50;99.90;;;;;;5115504;28;20457;-58
2023/01/23 01:21:17;;;;;;;124.15;59.75;;;2.60;99.90;;;;;;5115993;28;20076;-58
2023/01/23 01:23:43;;;;;;;123.13;58.28;;;2.70;99.90;;;;;;5115394;28;20032;-58
2023/01/23 01:26:10;;;;;;;121.10;56.15;;;2.50;99.90;;;;;;5115370;28;20038;-58
2023/01/23 01:28:38;;;;;;;128.23;57.28;;;2.50;99.90;;;;;;5115321;28;20067;-58
2023/01/23 01:31:14;;;;;;;123.63;56.88;;;2.40;99.90;;;;;;5115154;28;20030;-58
2023/01/23 01:33:42;;;;;;;139.90;67.13;;;2.40;99.90;;;;;;5115318;28;20024;-58
2023/01/23 01:36:16;;;;;;;116.25;55.92;;;2.50;99.90;;;;;;5115201;28;20027;-58
2023/01/23 01:38:45;;;;;;;125.20;59.90;;;2.50;99.90;;;;;;5115070;28;20035;-58
2023/01/23 01:41:13;;;;;;;152.38;76.03;;;2.50;99.90;;;;;;5115156;28;20398;-58
2023/01/23 01:43:40;;;;;;;173.50;81.20;;;2.60;99.90;;;;;;5114903;28;20036;-58
2023/01/23 01:46:15;;;;;;;167.00;77.95;;;2.60;99.90;;;;;;5115254;28;20032;-58
2023/01/23 01:49:05;;;;;;;158.13;72.47;;;2.50;99.90;;;;;;5115155;28;20821;-58
2023/01/23 01:51:55;;;;;;;161.77;75.85;;;2.50;99.90;;;;;;5113620;28;20036;-58
2023/01/23 01:54:33;;;;;;;152.88;73.68;;;2.50;99.90;;;;;;5113639;28;20035;-58
2023/01/23 01:57:20;;;;;;;154.23;72.93;;;2.50;99.90;;;;;;5114987;28;20031;-58
2023/01/23 02:00:07;;;;;;;120.88;58.45;;;2.40;99.90;;;;;;5113610;28;20467;-58
2023/01/23 02:02:48;;;;;;;123.65;55.28;;;2.50;99.90;;;;;;5114691;28;20101;-58
2023/01/23 02:05:25;;;;;;;97.70;43.47;;;2.60;99.90;;;;;;5113796;28;20078;-58
2023/01/23 02:08:17;;;;;;;99.68;45.85;;;2.60;99.90;;;;;;5113632;28;20034;-58
2023/01/23 02:10:45;;;;;;;98.70;47.67;;;2.60;99.90;;;;;;5113462;28;20031;-58
2023/01/23 02:13:21;;;;;;;88.53;46.03;;;2.60;99.90;;;;;;5114842;28;20193;-58
2023/01/23 02:15:50;;;;;;;83.57;40.80;;;2.50;99.90;;;;;;5113600;28;20023;-58
2023/01/23 02:18:16;;;;;;;78.40;39.58;;;2.60;99.90;;;;;;5114817;28;20078;-58
2023/01/23 02:20:42;;;;;;;74.15;37.35;;;2.60;99.90;;;;;;5114807;28;20026;-58
2023/01/23 02:23:16;;;;;;;85.40;40.58;;;2.60;99.90;;;;;;5113422;28;20106;-58
2023/01/23 02:25:50;;;;;;;84.28;40.40;;;2.60;99.90;;;;;;5114832;28;20027;-58
2023/01/23 02:28:16;;;;;;;81.50;40.88;;;2.40;99.90;;;;;;5113447;28;20426;-58
2023/01/23 02:30:45;;;;;;;79.38;39.05;;;2.50;99.90;;;;;;5113418;28;20380;-58
2023/01/23 02:33:24;;;;;;;84.20;35.63;;;2.60;99.90;;;;;;5113225;28;20027;-58
2023/01/23 02:35:51;;;;;;;64.18;33.22;;;2.50;99.90;;;;;;5113454;28;20051;-58
2023/01/23 02:38:21;;;;;;;65.57;32.92;;;2.60;99.90;;;;;;5114597;28;20028;-59
2023/01/23 02:40:51;;;;;;;59.83;31.38;;;2.60;99.90;;;;;;5113427;28;20024;-58
2023/01/23 02:43:26;;;;;;;83.90;38.72;;;2.50;99.90;;;;;;5113257;28;20028;-58
2023/01/23 02:46:00;;;;;;;107.63;45.13;;;2.50;99.90;;;;;;5113331;28;20058;-58
2023/01/23 02:48:26;;;;;;;102.05;44.67;;;2.50;99.90;;;;;;5114704;28;20080;-58
2023/01/23 02:50:52;;;;;;;93.00;41.08;;;2.40;99.90;;;;;;5113114;28;20130;-58
2023/01/23 02:53:18;;;;;;;83.55;39.25;;;2.50;99.90;;;;;;5114576;28;20024;-58
2023/01/23 02:55:44;;;;;;;84.43;40.15;;;2.50;99.90;;;;;;5116874;28;20024;-58
2023/01/23 03:00:56;;;;;;;58.67;31.60;;;2.50;99.90;;;;;;5116733;28;20047;-58
2023/01/23 03:03:22;;;;;;;67.75;32.70;;;2.50;99.90;;;;;;5118098;28;20046;-58
2023/01/23 03:05:49;;;;;;;60.05;31.98;;;2.40;99.90;;;;;;5116829;28;20031;-58
2023/01/23 03:08:15;;;;;;;56.72;30.42;;;2.40;99.90;;;;;;5116868;28;20035;-58
2023/01/23 03:10:41;;;;;;;54.55;29.55;;;2.30;99.90;;;;;;5118123;28;20128;-58
2023/01/23 03:13:10;;;;;;;57.03;30.38;;;2.40;99.90;;;;;;5116715;28;20027;-58
2023/01/23 03:15:42;;;;;;;59.92;31.08;;;2.40;99.90;;;;;;5116654;28;20031;-58
2023/01/23 03:18:09;;;;;;;53.97;27.38;;;2.40;99.90;;;;;;5116478;28;20038;-58
2023/01/23 03:20:41;;;;;;;46.00;27.55;;;2.40;99.90;;;;;;5116537;28;20480;-58
2023/01/23 03:23:07;;;;;;;46.42;26.13;;;2.50;99.90;;;;;;5117684;28;20370;-58
2023/01/23 03:25:33;;;;;;;57.83;27.45;;;2.60;99.90;;;;;;5117790;28;20027;-58
2023/01/23 03:28:01;;;;;;;42.72;23.75;;;2.60;99.90;;;;;;5116458;28;20028;-58
2023/01/23 03:30:27;;;;;;;47.65;25.17;;;2.60;99.90;;;;;;5116312;28;20028;-58
2023/01/23 03:32:53;;;;;;;42.97;23.63;;;2.70;99.90;;;;;;5116211;28;20035;-58
2023/01/23 03:35:20;;;;;;;46.35;24.38;;;2.70;99.90;;;;;;5117707;28;20024;-58
2023/01/23 03:37:48;;;;;;;43.78;23.52;;;2.80;99.90;;;;;;5116206;28;20396;-58
2023/01/23 03:43:05;;;;;;;46.80;23.52;;;2.60;99.90;;;;;;5116099;28;20106;-58
2023/01/23 03:45:33;;;;;;;51.28;24.95;;;2.60;99.90;;;;;;5116161;28;20052;-58
2023/01/23 03:47:59;;;;;;;56.28;25.80;;;2.70;99.90;;;;;;5115969;28;20019;-58
2023/01/23 03:50:25;;;;;;;49.53;24.67;;;2.50;99.90;;;;;;5115958;28;20028;-58
2023/01/23 03:52:51;;;;;;;52.50;27.00;;;2.60;99.90;;;;;;5115838;28;20088;-58
2023/01/23 03:55:17;;;;;;;68.07;29.83;;;2.70;99.90;;;;;;5115894;28;20031;-58
2023/01/23 03:57:45;;;;;;;62.80;30.73;;;2.50;99.90;;;;;;5115689;28;20165;-58
2023/01/23 04:00:22;;;;;;;61.10;29.10;;;2.40;99.90;;;;;;5116935;28;20054;-58
2023/01/23 04:02:59;;;;;;;61.05;30.85;;;2.50;99.90;;;;;;5115826;28;20081;-58
2023/01/23 04:05:25;;;;;;;58.33;29.58;;;2.40;99.90;;;;;;5115360;28;20023;-58
2023/01/23 04:07:51;;;;;;;60.65;29.20;;;2.40;99.90;;;;;;5115526;28;20031;-58
2023/01/23 04:10:17;;;;;;;63.88;28.92;;;2.40;99.90;;;;;;5115620;28;20043;-58
2023/01/23 04:12:48;;;;;;;63.70;31.08;;;2.50;99.90;;;;;;5115544;28;20136;-58
2023/01/23 04:15:14;;;;;;;65.00;32.08;;;2.50;99.90;;;;;;5116670;28;20047;-58
2023/01/23 04:17:40;;;;;;;61.28;29.67;;;2.50;99.90;;;;;;5115372;28;20034;-58
2023/01/23 04:20:07;;;;;;;64.65;30.92;;;2.50;99.90;;;;;;5115444;28;20450;-58
2023/01/23 04:22:33;;;;;;;69.90;30.48;;;2.50;99.90;;;;;;5115224;28;20039;-58
2023/01/23 04:24:59;;;;;;;64.72;31.50;;;2.60;99.90;;;;;;5115279;28;20381;-58
2023/01/23 04:27:26;;;;;;;61.88;32.05;;;2.60;99.90;;;;;;5115178;28;20028;-58
2023/01/23 04:29:54;;;;;;;63.78;31.88;;;2.60;99.90;;;;;;5115033;28;20060;-58
2023/01/23 04:32:20;;;;;;;72.03;32.80;;;2.40;99.90;;;;;;5115052;28;20111;-58
2023/01/23 04:34:46;;;;;;;83.72;41.67;;;2.30;99.90;;;;;;5115139;28;20019;-58
2023/01/23 04:37:13;;;;;;;75.72;36.92;;;2.30;99.90;;;;;;5115062;28;20026;-58
2023/01/23 04:39:40;;;;;;;63.35;30.80;;;2.30;99.90;;;;;;5114971;28;20027;-58
2023/01/23 04:42:06;;;;;;;61.22;31.33;;;2.40;99.90;;;;;;5114838;28;20042;-58
2023/01/23 04:44:58;;;;;;;72.05;35.63;;;2.50;99.90;;;;;;5113991;28;20044;-58
2023/01/23 04:47:42;;;;;;;67.53;34.30;;;2.60;99.90;;;;;;5116166;28;20144;-58
2023/01/23 04:50:12;;;;;;;62.78;31.92;;;2.50;99.90;;;;;;5114894;28;20059;-58
2023/01/23 04:52:42;;;;;;;67.30;33.47;;;2.50;99.90;;;;;;5114683;28;20032;-58
2023/01/23 04:55:08;;;;;;;71.82;34.78;;;2.50;99.90;;;;;;5114657;28;20489;-58
2023/01/23 04:57:35;;;;;;;73.88;35.58;;;2.60;99.90;;;;;;5114673;28;20031;-58
2023/01/23 05:00:33;;;;;;;73.70;33.28;;;2.60;99.90;;;;;;5109062;28;20039;-58
2023/01/23 05:03:01;;;;;;;71.68;34.50;;;2.50;99.90;;;;;;5114404;28;20408;-58
2023/01/23 05:05:29;;;;;;;82.03;39.45;;;2.50;99.90;;;;;;5114594;28;20091;-58
2023/01/23 05:07:59;;;;;;;103.18;48.80;;;2.50;99.90;;;;;;5114582;28;20023;-58
2023/01/23 05:10:25;;;;;;;97.68;43.70;;;2.40;99.90;;;;;;5114613;28;20380;-58
2023/01/23 05:12:52;;;;;;;84.68;40.80;;;2.40;99.90;;;;;;5114367;28;20087;-58
2023/01/23 05:15:20;;;;;;;81.68;36.90;;;2.30;99.90;;;;;;5114264;28;20464;-58
2023/01/23 05:17:47;;;;;;;90.53;36.95;;;2.40;99.90;;;;;;5113632;27;20396;-58
2023/01/23 05:20:13;;;;;;;76.97;35.00;;;2.40;99.90;;;;;;5114342;28;20137;-58
2023/01/23 05:22:50;;;;;;;75.18;35.08;;;2.30;99.90;;;;;;5115420;28;20035;-58
2023/01/23 05:25:22;;;;;;;69.25;32.38;;;2.30;99.90;;;;;;5114093;28;20024;-58
2023/01/23 05:27:49;;;;;;;;;;;2.40;99.90;;;;;;5114590;28;20028;-58
2023/01/23 05:30:15;;;;;;;81.82;34.97;;;2.40;99.90;;;;;;5114069;28;19911;-58
2023/01/23 05:32:45;;;;;;;86.72;38.83;;;2.50;99.90;;;;;;5114066;28;20036;-58
2023/01/23 05:35:17;;;;;;;80.07;36.95;;;2.60;99.90;;;;;;5114018;28;20547;-58
2023/01/23 05:37:46;;;;;;;95.43;36.33;;;2.60;99.90;;;;;;5115509;28;20087;-58
2023/01/23 05:40:13;;;;;;;81.93;36.60;;;2.60;99.90;;;;;;5114000;28;20430;-58
2023/01/23 05:43:18;;;;;;;130.32;55.58;;;2.60;99.90;;;;;;5052226;28;20029;-58
2023/01/23 05:45:44;;;;;;;149.10;68.38;;;2.50;99.90;;;;;;5052108;28;20044;-58
2023/01/23 05:48:20;;;;;;;115.30;47.85;;;2.50;99.90;;;;;;5051951;28;20033;-58
2023/01/23 05:50:46;;;;;;;108.68;45.70;;;2.50;99.90;;;;;;5051953;28;20115;-58
2023/01/23 05:53:13;;;;;;;188.20;86.70;;;2.50;99.90;;;;;;5035387;28;20032;-58
2023/01/23 05:55:40;;;;;;;142.25;67.95;;;2.50;99.90;;;;;;5051947;28;20087;-58
2023/01/23 05:58:07;;;;;;;106.25;49.85;;;2.50;99.90;;;;;;5035373;28;20033;-58
2023/01/23 06:00:48;;;;;;;104.55;50.10;;;2.60;99.90;;;;;;5051905;28;20068;-58
2023/01/23 06:03:44;;;;;;;96.25;45.22;;;2.60;99.90;;;;;;5038993;28;20530;-58
2023/01/23 06:06:34;;;;;;;102.03;45.80;;;2.60;99.90;;;;;;5035115;28;20108;-58
2023/01/23 06:09:01;;;;;;;369.58;141.38;;;2.60;99.90;;;;;;5035288;28;20032;-58
2023/01/23 06:11:26;;;;;;;239.82;94.82;;;2.50;99.90;;;;;;5035045;28;20033;-58
2023/01/23 06:13:52;;;;;;;147.38;67.25;;;2.50;99.90;;;;;;5077754;28;20047;-58
2023/01/23 06:16:18;;;;;;;167.20;81.05;;;2.60;99.90;;;;;;5113555;28;20418;-58
2023/01/23 06:18:45;;;;;;;156.35;69.40;;;2.70;99.90;;;;;;5113553;28;20024;-58
2023/01/23 06:21:14;;;;;;;152.45;70.32;;;2.60;99.90;;;;;;5113281;28;20032;-58
2023/01/23 06:23:40;;;;;;;108.65;48.53;;;2.60;99.90;;;;;;5113151;28;20062;-59
2023/01/23 06:26:08;;;;;;;111.80;49.55;;;2.60;99.90;;;;;;5113254;28;20452;-58
2023/01/23 06:28:35;;;;;;;126.22;60.17;;;2.60;99.90;;;;;;5115163;28;20023;-58
2023/01/23 06:31:03;;;;;;;128.55;59.25;;;2.70;99.90;;;;;;5113603;28;20028;-58
2023/01/23 06:33:42;;;;;;;122.07;56.13;;;2.70;99.90;;;;;;5112430;28;20027;-58
2023/01/23 06:36:11;;;;;;;124.43;55.85;;;2.60;99.90;;;;;;5117098;28;20118;-58
2023/01/23 06:38:37;;;;;;;110.38;52.95;;;2.70;99.90;;;;;;5110310;28;20027;-58
2023/01/23 06:41:08;;;;;;;110.60;50.70;;;2.70;99.90;;;;;;5109682;28;20039;-58
2023/01/23 06:43:36;;;;;;;117.93;51.60;;;2.70;99.90;;;;;;5114171;28;20039;-58
2023/01/23 06:46:03;;;;;;;112.75;56.05;;;2.80;99.90;;;;;;5117020;28;20556;-58
2023/01/23 06:48:29;;;;;;;109.72;51.92;;;2.80;99.90;;;;;;5115685;28;20067;-58
2023/01/23 06:50:59;;;;;;;106.85;50.03;;;2.80;99.90;;;;;;5114972;28;20040;-58
2023/01/23 06:53:26;;;;;;;107.75;50.25;;;2.70;99.90;;;;;;5116489;28;20070;-58
2023/01/23 06:55:52;;;;;;;105.97;46.97;;;2.80;99.90;;;;;;5114664;28;20438;-58
2023/01/23 06:58:22;;;;;;;100.32;47.78;;;2.80;99.90;;;;;;5118039;28;20373;-58
2023/01/23 07:00:48;;;;;;;98.55;46.28;;;2.80;99.90;;;;;;5114658;28;20059;-58
2023/01/23 07:03:34;;;;;;;92.80;42.72;;;2.80;99.90;;;;;;5117590;28;20081;-58
2023/01/23 07:06:05;;;;;;;97.72;46.08;;;2.80;99.90;;;;;;5117873;28;20438;-58
2023/01/23 07:08:33;;;;;;;106.78;50.05;;;2.80;99.90;;;;;;5110283;28;20024;-58
2023/01/23 07:11:00;;;;;;;98.22;46.78;;;2.80;99.90;;;;;;5097398;28;20063;-58
2023/01/23 07:13:27;;;;;;;87.05;42.20;;;2.90;99.90;;;;;;5114274;28;20030;-59
2023/01/23 07:15:53;;;;;;;92.38;44.80;;;2.90;99.90;;;;;;5107827;28;20039;-59
2023/01/23 07:18:22;;;;;;;87.43;43.88;;;2.90;99.90;;;;;;5099107;28;20484;-59
2023/01/23 07:20:48;;;;;;;83.07;42.40;;;2.80;99.90;;;;;;5107779;28;20032;-59
2023/01/23 07:23:17;;;;;;;107.43;48.92;;;2.90;99.90;;;;;;5103940;28;20058;-59
2023/01/23 07:25:43;;;;;;;88.47;44.72;;;2.90;99.90;;;;;;5111129;28;20024;-59
2023/01/23 07:28:09;;;;;;;95.93;43.67;;;2.90;99.90;;;;;;5117198;28;20040;-59
2023/01/23 07:30:35;;;;;;;91.82;44.10;;;2.80;99.90;;;;;;5113761;28;20047;-58
2023/01/23 07:33:01;;;;;;;96.85;44.63;;;2.80;99.90;;;;;;5117099;28;20035;-58
2023/01/23 07:35:27;;;;;;;88.25;43.70;;;2.70;99.90;;;;;;5117820;27;20034;-58
2023/01/23 07:37:53;;;;;;;109.03;48.95;;;2.80;99.90;;;;;;5116816;28;20050;-59
2023/01/23 07:40:19;;;;;;;108.00;49.08;;;2.80;99.90;;;;;;5116961;28;20024;-59
2023/01/23 07:42:45;;;;;;;109.25;54.90;;;2.80;99.90;;;;;;5117695;28;20027;-59
2023/01/23 07:45:12;;;;;;;117.28;57.13;;;2.90;99.90;;;;;;5115775;28;20611;-59
2023/01/23 07:47:39;;;;;;;113.63;55.13;;;2.90;99.90;;;;;;5116920;28;20037;-59
2023/01/23 07:50:12;;;;;;;107.82;52.17;;;3.00;99.90;;;;;;5117136;28;20027;-59
2023/01/23 07:52:38;;;;;;;97.72;47.30;;;2.90;99.90;;;;;;5115466;28;20028;-58
2023/01/23 07:55:05;;;;;;;91.00;46.60;;;3.00;99.90;;;;;;5116058;28;20023;-58
2023/01/23 07:57:32;;;;;;;89.05;45.50;;;3.00;99.90;;;;;;5116740;28;20043;-59
2023/01/23 08:00:01;;;;;;;94.65;47.15;;;3.10;99.90;;;;;;5116271;28;20046;-61
2023/01/23 08:02:27;;;;;;;98.28;49.30;;;3.20;99.90;;;;;;5115289;28;20416;-59
2023/01/23 08:04:53;;;;;;;113.20;52.72;;;3.10;99.90;;;;;;5116001;28;20114;-59
2023/01/23 08:07:22;;;;;;;101.57;53.58;;;3.20;99.90;;;;;;5116826;28;20053;-58
2023/01/23 08:09:48;;;;;;;109.55;51.38;;;3.20;99.90;;;;;;5115139;28;20036;-58
2023/01/23 08:12:14;;;;;;;108.80;50.25;;;3.30;99.90;;;;;;5115239;28;20096;-59
2023/01/23 08:14:40;;;;;;;102.18;48.70;;;3.30;99.90;;;;;;5116331;28;20035;-59
2023/01/23 08:17:06;;;;;;;114.82;53.25;;;3.40;99.90;;;;;;5116400;28;20028;-59
2023/01/23 08:19:32;;;;;;;144.60;64.45;;;3.40;99.90;;;;;;5113298;28;20019;-59
2023/01/23 08:22:00;;;;;;;169.93;70.38;;;3.50;99.90;;;;;;5105674;28;20062;-59
2023/01/23 08:24:26;;;;;;;153.43;61.67;;;3.40;99.90;;;;;;5107827;28;20052;-59
2023/01/23 08:26:51;;;;;;;160.27;67.95;;;3.40;99.90;;;;;;5110891;28;20070;-59
2023/01/23 08:29:17;;;;;;;162.45;72.45;;;3.40;99.90;;;;;;5114987;28;20031;-59
2023/01/23 08:31:43;;;;;;;135.88;67.00;;;3.40;99.90;;;;;;5116058;28;20039;-59
2023/01/23 08:34:09;;;;;;;135.23;63.45;;;3.40;99.90;;;;;;5114535;28;20024;-59
2023/01/23 08:36:35;;;;;;;191.40;81.93;;;3.40;99.90;;;;;;5115793;28;20028;-59
2023/01/23 08:39:01;;;;;;;168.63;74.53;;;3.50;99.90;;;;;;5115819;28;20114;-59
2023/01/23 08:41:27;;;;;;;167.70;68.55;;;3.50;99.90;;;;;;5115977;28;20084;-59
2023/01/23 08:43:53;;;;;;;212.93;91.63;;;3.50;99.90;;;;;;5116053;28;20519;-59
2023/01/23 08:46:19;;;;;;;244.93;100.55;;;3.60;99.90;;;;;;5115617;28;20027;-59
2023/01/23 08:48:45;;;;;;;289.63;113.68;;;3.60;99.90;;;;;;5114470;28;20038;-59
2023/01/23 08:51:12;;;;;;;298.00;118.10;;;3.60;99.90;;;;;;5115165;28;20081;-59
2023/01/23 08:53:39;;;;;;;342.60;131.38;;;3.60;99.90;;;;;;5114322;28;20105;-59
2023/01/23 08:56:13;;;;;;;405.15;154.80;;;3.50;99.90;;;;;;5095282;28;20450;-59
2023/01/23 08:58:38;;;;;;;432.85;155.52;;;3.30;99.90;;;;;;5095267;28;20039;-59
2023/01/23 09:01:09;;;;;;;396.40;145.65;;;3.40;99.90;;;;;;5102485;28;20396;-59
2023/01/23 09:03:35;;;;;;;406.63;154.02;;;3.50;99.90;;;;;;5110088;28;20497;-59
2023/01/23 09:06:01;;;;;;;436.08;168.68;;;3.50;99.90;;;;;;5116160;28;20038;-59
2023/01/23 09:08:27;;;;;;;420.92;180.40;;;3.50;99.90;;;;;;5116287;28;20106;-59
2023/01/23 09:10:53;;;;;;;372.80;145.52;;;3.50;99.90;;;;;;5109315;28;20058;-58
2023/01/23 09:13:19;;;;;;;324.33;129.80;;;3.50;99.90;;;;;;5113272;28;20028;-58
2023/01/23 09:15:45;;;;;;;347.70;132.23;;;3.50;99.90;;;;;;5115852;28;20370;-58
2023/01/23 09:18:11;;;;;;;310.60;122.95;;;3.50;99.90;;;;;;5107883;28;20019;-58
2023/01/23 09:20:37;;;;;;;300.95;122.20;;;3.40;99.90;;;;;;5113670;28;20637;-59
2023/01/23 09:23:03;;;;;;;294.20;110.95;;;3.50;99.90;;;;;;5107883;27;20043;-59
2023/01/23 09:25:30;;;;;;;293.30;102.72;;;3.50;99.90;;;;;;5104766;28;20027;-58
2023/01/23 09:27:56;;;;;;;305.77;101.07;;;3.50;99.90;;;;;;5115470;28;20114;-58
2023/01/23 09:30:22;;;;;;;269.05;94.03;;;3.60;99.90;;;;;;5095571;28;20028;-59
2023/01/23 09:32:48;;;;;;;268.75;95.22;;;3.60;99.90;;;;;;5097657;28;20023;-59
2023/01/23 09:35:17;;;;;;;289.00;97.55;;;3.60;99.90;;;;;;5104363;28;20035;-59
2023/01/23 09:38:03;;;;;;;275.80;88.03;;;3.70;99.90;;;;;;5094471;28;20050;-59
2023/01/23 09:40:37;;;;;;;266.65;92.93;;;3.70;99.90;;;;;;5094126;28;20106;-60
2023/01/23 09:43:15;;;;;;;307.83;101.45;;;3.90;99.90;;;;;;5112104;28;20120;-59
2023/01/23 09:45:46;;;;;;;295.23;103.75;;;4.20;99.90;;;;;;5114653;28;20064;-59
2023/01/23 09:48:19;;;;;;;;;;;4.20;99.90;;;;;;5115085;28;20031;-59
2023/01/23 09:50:59;;;;;;;299.15;108.28;;;4.40;99.90;;;;;;5114574;28;19907;-58
2023/01/23 09:53:35;;;;;;;279.85;101.20;;;4.50;99.90;;;;;;5114279;28;20047;-59
2023/01/23 09:56:22;;;;;;;285.65;105.72;;;4.50;99.90;;;;;;5115194;28;20031;-59
2023/01/23 09:58:59;;;;;;;265.52;96.88;;;4.60;99.90;;;;;;5105203;28;20028;-58
2023/01/23 10:01:29;;;;;;;221.35;87.28;;;4.70;99.90;;;;;;5101080;28;20476;-58
2023/01/23 10:04:00;;;;;;;234.00;86.80;;;4.60;99.90;;;;;;5102594;28;20032;-59
2023/01/23 10:06:38;;;;;;;216.82;88.47;;;4.60;99.90;;;;;;5098809;28;20391;-59
2023/01/23 10:09:39;;;;;;;195.23;85.50;;;4.70;99.90;;;;;;5114475;28;20023;-58
2023/01/23 10:12:42;;;;;;;193.93;87.10;;;4.80;99.90;;;;;;5070318;28;20518;-58
2023/01/23 10:15:21;;;;;;;204.90;89.50;;;4.70;99.90;;;;;;5114427;28;20032;-59
2023/01/23 10:18:07;;;;;;;197.93;87.90;;;4.70;99.90;;;;;;5114507;28;20036;-59
2023/01/23 10:21:03;;;;;;;171.02;77.90;;;4.70;99.90;;;;;;5114690;28;20020;-59
2023/01/23 10:23:35;;;;;;;171.18;80.18;;;4.70;99.90;;;;;;5114355;28;20034;-59
2023/01/23 10:26:02;;;;;;;163.45;76.15;;;4.60;99.90;;;;;;5109507;28;20027;-59
2023/01/23 10:28:34;;;;;;;157.93;72.53;;;4.50;99.90;;;;;;5104220;28;20110;-59
2023/01/23 10:31:03;;;;;;;138.80;64.72;;;4.70;99.90;;;;;;5109195;28;20068;-59
2023/01/23 10:33:39;;;;;;;158.10;70.63;;;4.80;99.90;;;;;;5104253;28;20056;-59
2023/01/23 10:36:21;;;;;;;173.63;76.55;;;5.00;99.90;;;;;;5114319;28;20038;-59
2023/01/23 10:39:03;;;;;;;198.13;83.00;;;5.10;99.90;;;;;;5114281;28;20058;-59
2023/01/23 10:41:29;;;;;;;202.60;85.65;;;5.20;99.90;;;;;;5114322;28;20043;-58
2023/01/23 10:43:56;;;;;;;184.43;77.22;;;5.30;99.90;;;;;;5114298;28;20028;-58
2023/01/23 10:46:37;;;;;;;184.13;76.63;;;5.30;99.90;;;;;;5114074;28;20468;-58
2023/01/23 10:49:03;;;;;;;;;;;5.40;99.90;;;;;;5114961;28;20027;-59
2023/01/23 10:51:43;;;;;;;196.20;77.63;;;5.50;99.90;;;;;;5113631;28;20457;-58
2023/01/23 10:54:18;;;;;;;211.00;87.70;;;5.50;99.90;;;;;;5113842;28;20031;-59
2023/01/23 10:56:59;;;;;;;221.73;86.63;;;5.60;99.90;;;;;;5114169;28;20053;-59
2023/01/23 10:59:57;;;;;;;193.05;82.70;;;5.60;99.90;;;;;;5114015;28;20362;-59
2023/01/23 11:02:42;;;;;;;191.00;85.97;;;5.70;99.90;;;;;;5085520;28;20043;-59
2023/01/23 11:05:44;;;;;;;199.80;82.63;;;5.60;99.90;;;;;;5113906;28;20027;-59
2023/01/23 11:08:32;;;;;;;200.38;84.88;;;5.60;99.90;;;;;;5112347;28;20038;-59
2023/01/23 11:11:28;;;;;;;193.07;84.57;;;5.70;99.90;;;;;;5101382;28;20027;-59
2023/01/23 11:14:08;;;;;;;195.23;83.90;;;5.60;99.90;;;;;;5107590;28;20027;-59
2023/01/23 11:16:34;;;;;;;201.00;87.63;;;5.80;99.90;;;;;;5107490;28;20084;-59
2023/01/23 11:19:06;;;;;;;178.25;79.88;;;5.70;99.90;;;;;;5117253;28;20108;-59
2023/01/23 11:21:35;;;;;;;241.50;99.13;;;5.70;99.90;;;;;;5111106;28;20030;-59
2023/01/23 11:24:07;;;;;;;205.60;89.35;;;5.70;99.90;;;;;;5110404;28;20055;-58
2023/01/23 11:26:37;;;;;;;217.88;94.13;;;5.70;99.90;;;;;;5097291;28;20020;-58
2023/01/23 11:29:20;;;;;;;228.02;97.82;;;5.70;99.90;;;;;;5114712;28;20035;-58
2023/01/23 11:31:47;;;;;;;266.73;116.28;;;5.70;99.90;;;;;;5117257;28;20028;-58
2023/01/23 11:34:16;;;;;;;257.45;108.07;;;5.70;99.90;;;;;;5113771;28;20023;-59
2023/01/23 11:37:02;;;;;;;227.75;91.45;;;5.60;99.90;;;;;;5116898;28;20461;-59
2023/01/23 11:39:41;;;;;;;242.77;96.85;;;5.60;99.90;;;;;;5116868;28;20044;-59
2023/01/23 11:42:11;;;;;;;256.27;97.80;;;5.70;99.90;;;;;;5104256;28;20063;-59
2023/01/23 11:44:38;;;;;;;245.55;100.68;;;5.80;99.90;;;;;;5117173;28;20065;-59
2023/01/23 11:47:29;;;;;;;243.57;100.30;;;5.70;99.90;;;;;;5117046;28;20038;-59
2023/01/23 11:50:37;;;;;;;274.73;103.10;;;5.70;99.90;;;;;;5117254;28;20107;-59
2023/01/23 11:53:25;;;;;;;262.52;104.97;;;5.70;99.90;;;;;;5116379;28;20035;-59
2023/01/23 11:55:54;;;;;;;237.00;93.43;;;5.80;99.90;;;;;;5116754;28;20045;-59
2023/01/23 11:58:46;;;;;;;245.77;95.35;;;5.80;99.90;;;;;;5116982;28;20039;-59
2023/01/23 12:01:33;;;;;;;243.27;93.03;;;5.90;99.90;;;;;;5116735;28;20039;-59
2023/01/23 12:04:17;;;;;;;250.70;94.22;;;5.90;99.90;;;;;;5116474;28;20057;-59
2023/01/23 12:07:15;;;;;;;241.10;89.50;;;6.00;99.90;;;;;;5116649;28;20030;-59
2023/01/23 12:09:50;;;;;;;235.40;92.07;;;5.80;99.90;;;;;;5116457;28;20031;-59
2023/01/23 12:12:39;;;;;;;229.95;89.97;;;5.90;99.90;;;;;;5116364;28;20046;-59
2023/01/23 12:15:25;;;;;;;211.07;90.05;;;5.90;99.90;;;;;;5116102;28;20077;-59
2023/01/23 12:18:25;;;;;;;202.00;86.15;;;5.90;99.90;;;;;;5116085;28;20016;-59
2023/01/23 12:21:16;;;;;;;195.90;83.95;;;5.90;99.90;;;;;;5116089;28;20566;-59
2023/01/23 12:23:44;;;;;;;;;;;5.90;99.90;;;;;;5116365;28;20081;-59
2023/01/23 12:26:10;;;;;;;186.75;77.32;;;5.60;99.90;;;;;;5117048;28;19915;-59
2023/01/23 12:28:57;;;;;;;185.00;80.13;;;5.70;99.90;;;;;;5116609;28;20483;-59
2023/01/23 12:31:55;;;;;;;220.20;87.72;;;5.70;99.90;;;;;;5116749;28;20035;-59
2023/01/23 12:35:11;;;;;;;218.40;89.13;;;5.70;99.90;;;;;;5116126;28;20320;-59
2023/01/23 12:38:14;;;;;;;206.15;85.53;;;5.60;99.90;;;;;;5083682;28;20058;-59
2023/01/23 12:40:48;;;;;;;191.82;80.68;;;5.70;99.90;;;;;;5115706;28;20067;-59
2023/01/23 12:43:40;;;;;;;196.45;85.40;;;5.70;99.90;;;;;;5115540;28;20038;-59
2023/01/23 12:46:17;;;;;;;185.15;82.93;;;5.80;99.90;;;;;;5104838;28;20052;-59
2023/01/23 12:49:20;;;;;;;183.93;84.85;;;5.90;99.90;;;;;;5115677;28;20499;-59
2023/01/23 12:51:54;;;;;;;181.40;79.40;;;5.80;99.90;;;;;;5113716;28;20442;-59
2023/01/23 12:54:32;;;;;;;217.75;91.07;;;5.80;99.90;;;;;;5109008;28;20027;-59
2023/01/23 12:56:59;;;;;;;210.18;91.05;;;5.80;99.90;;;;;;5115177;28;20038;-59
2023/01/23 12:59:43;;;;;;;218.88;91.15;;;5.80;99.90;;;;;;5115127;28;20114;-59